createdAt,value
2024-05-09T00:04:58.750Z,558.00
2024-05-09T00:19:58.588Z,560.00
2024-05-09T00:34:58.340Z,555.00
2024-05-09T00:49:58.329Z,553.00
2024-05-09T01:04:57.996Z,558.00
2024-05-09T01:19:57.730Z,561.00
2024-05-09T01:34:57.604Z,575.00
2024-05-09T01:49:57.377Z,561.00
2024-05-09T02:04:57.235Z,570.00
2024-05-09T02:19:57.170Z,568.00
2024-05-09T02:34:56.804Z,574.00
2024-05-09T02:49:56.577Z,573.00
2024-05-09T03:04:56.534Z,562.00
2024-05-09T03:19:56.202Z,571.00
2024-05-09T03:34:56.236Z,576.00
2024-05-09T03:49:55.832Z,569.00
2024-05-09T04:04:55.720Z,562.00
2024-05-09T04:19:55.555Z,563.00
2024-05-09T04:34:55.306Z,561.00
2024-05-09T04:49:55.051Z,554.00
2024-05-09T05:04:55.180Z,560.00
2024-05-09T05:19:54.919Z,558.00
2024-05-09T05:34:54.508Z,551.00
2024-05-09T05:49:54.353Z,545.00
2024-05-09T06:04:54.202Z,548.00
2024-05-09T06:19:54.133Z,537.00
2024-05-09T06:34:53.945Z,562.00
2024-05-09T06:49:53.627Z,544.00
2024-05-09T07:04:53.542Z,524.00
2024-05-09T07:19:53.221Z,529.00
2024-05-09T07:34:52.966Z,528.00
2024-05-09T07:51:32.845Z,530.00
2024-05-09T08:04:53.730Z,532.00
2024-05-09T08:19:52.492Z,546.00
2024-05-09T08:34:52.307Z,526.00
2024-05-09T08:49:52.081Z,528.00
2024-05-09T09:04:52.098Z,520.00
2024-05-09T09:20:09.015Z,552.00
2024-05-09T09:34:52.541Z,524.00
2024-05-09T09:49:51.352Z,519.00
2024-05-09T10:04:51.319Z,547.00
2024-05-09T10:19:51.236Z,531.00
2024-05-09T10:34:50.730Z,523.00
2024-05-09T10:49:50.622Z,528.00
2024-05-09T11:04:50.441Z,517.00
2024-05-09T11:19:50.166Z,538.00
2024-05-09T11:34:49.954Z,522.00
2024-05-09T11:49:50.147Z,505.00
2024-05-09T12:04:49.680Z,499.00
2024-05-09T12:19:49.484Z,502.00
2024-05-09T12:34:49.178Z,481.00
2024-05-09T12:49:49.069Z,500.00
